Time;durP1;ratioP1;P1;durP2;ratioP2;P2;SDS_P1;SDS_P2;PMS_P1;PMS_P2;Temp;Humidity;BMP_temperature;BMP_pressure;BME280_temperature;BME280_humidity;BME280_pressure;Samples;Min_cycle;Max_cycle;Signal;HPM_P1;HPM_P2
2021/09/03 00:00:51;;;;;;;11.23;10.02;;;;;;;16.41;67.78;100952.31;4880397;28;96910;-85
2021/09/03 00:03:17;;;;;;;11.27;9.48;;;;;;;16.36;68.18;100959.63;4852647;28;101734;-84
2021/09/03 00:05:43;;;;;;;10.77;9.35;;;;;;;16.26;68.07;100953.94;4864083;28;98472;-85
2021/09/03 00:08:08;;;;;;;13.32;10.07;;;;;;;16.20;68.30;100955.97;4848333;28;96666;-84
2021/09/03 00:10:34;;;;;;;10.52;9.52;;;;;;;16.17;68.54;100956.13;4864272;28;96606;-84
2021/09/03 00:12:59;;;;;;;13.75;9.98;;;;;;;16.17;68.15;100945.53;4879438;28;101637;-85
2021/09/03 00:15:25;;;;;;;11.65;10.23;;;;;;;16.20;68.29;100942.75;4863700;28;101129;-85
2021/09/03 00:17:51;;;;;;;16.30;10.20;;;;;;;16.06;68.17;100946.06;4863644;28;96722;-85
2021/09/03 00:20:16;;;;;;;14.57;9.40;;;;;;;15.99;68.54;100939.31;4896872;28;96591;-85
2021/09/03 00:22:42;;;;;;;11.43;9.98;;;;;;;16.10;68.49;100938.81;4879565;28;97486;-84
2021/09/03 00:25:09;;;;;;;11.20;9.52;;;;;;;16.01;68.36;100942.75;4847365;28;101580;-85
2021/09/03 00:27:35;;;;;;;15.82;10.00;;;;;;;15.97;68.50;100944.72;4879889;28;96530;-84
2021/09/03 00:30:01;;;;;;;10.57;9.45;;;;;;;15.91;68.85;100930.88;4863918;28;96917;-85
2021/09/03 00:32:26;;;;;;;11.45;9.70;;;;;;;16.00;68.56;100946.34;4847745;28;101415;-85
2021/09/03 00:34:52;;;;;;;11.07;9.95;;;;;;;15.87;68.89;100939.91;4848302;28;101748;-85
2021/09/03 00:37:17;;;;;;;13.48;10.15;;;;;;;15.80;69.22;100931.38;4863582;28;96695;-85
2021/09/03 00:39:43;;;;;;;10.20;9.00;;;;;;;15.87;69.07;100931.97;4848162;28;97036;-85
2021/09/03 00:42:10;;;;;;;11.48;9.45;;;;;;;15.94;68.90;100938.66;4862800;28;101674;-85
2021/09/03 00:44:36;;;;;;;15.85;9.93;;;;;;;15.86;68.73;100920.50;4847751;28;101482;-85
2021/09/03 00:47:02;;;;;;;11.63;9.50;;;;;;;15.91;68.68;100933.53;4848096;28;96550;-85
2021/09/03 00:49:27;;;;;;;11.35;9.18;;;;;;;15.84;68.75;100925.88;4863548;28;96955;-85
2021/09/03 00:51:53;;;;;;;14.82;9.68;;;;;;;15.83;68.98;100915.38;4863367;28;100850;-85
2021/09/03 00:54:19;;;;;;;10.10;8.90;;;;;;;15.80;69.06;100920.81;4847551;28;101574;-85
2021/09/03 00:56:45;;;;;;;10.00;9.00;;;;;;;15.77;69.15;100920.94;4848092;28;96588;-85
2021/09/03 00:59:11;;;;;;;12.68;9.95;;;;;;;15.69;69.50;100918.63;4867563;28;97015;-85
2021/09/03 01:01:37;;;;;;;10.32;8.98;;;;;;;15.77;69.18;100916.50;4850474;28;101783;-84
2021/09/03 01:04:02;;;;;;;11.73;9.60;;;;;;;15.75;69.39;100917.50;4874943;28;97999;-85
2021/09/03 01:06:28;;;;;;;11.52;10.32;;;;;;;15.74;69.10;100913.16;4850345;28;96629;-85
2021/09/03 01:08:53;;;;;;;10.98;9.57;;;;;;;15.68;69.09;100901.06;4850861;28;96838;-85
2021/09/03 01:11:19;;;;;;;13.95;9.80;;;;;;;15.65;69.69;100910.88;4850452;28;101491;-85
2021/09/03 01:13:45;;;;;;;10.63;9.25;;;;;;;15.63;69.51;100906.50;4866277;28;101263;-85
2021/09/03 01:16:10;;;;;;;12.23;9.60;;;;;;;15.70;69.24;100908.91;4866579;28;96610;-84
2021/09/03 01:18:35;;;;;;;10.05;8.93;;;;;;;15.58;69.60;100907.66;4882450;28;96598;-83
2021/09/03 01:21:01;;;;;;;11.57;8.85;;;;;;;15.51;69.56;100906.22;4866099;28;101243;-85
2021/09/03 01:23:27;;;;;;;11.55;8.65;;;;;;;15.61;69.55;100904.84;4866614;28;97829;-85
2021/09/03 01:25:52;;;;;;;9.98;8.98;;;;;;;15.61;69.65;100903.06;4882053;28;96764;-85
2021/09/03 01:28:18;;;;;;;10.52;9.38;;;;;;;15.63;69.10;100901.22;4874475;28;96878;-85
2021/09/03 01:30:43;;;;;;;14.45;9.52;;;;;;;15.60;69.17;100897.88;4865483;28;101604;-84
2021/09/03 01:33:08;;;;;;;11.32;8.77;;;;;;;15.55;69.29;100891.91;4881952;28;97407;-84
2021/09/03 01:35:34;;;;;;;13.40;9.90;;;;;;;15.54;69.14;100888.41;4850540;28;96559;-85
2021/09/03 01:38:00;;;;;;;10.90;9.23;;;;;;;15.48;69.35;100893.13;4850635;28;96996;-85
2021/09/03 01:40:26;;;;;;;11.98;10.18;;;;;;;15.55;69.08;100889.28;4865723;28;101454;-85
2021/09/03 01:42:51;;;;;;;10.88;8.60;;;;;;;15.45;69.38;100894.13;4881337;28;101819;-85
2021/09/03 01:45:17;;;;;;;12.05;9.18;;;;;;;15.50;69.13;100899.19;4850254;28;96649;-85
2021/09/03 01:47:42;;;;;;;12.10;9.75;;;;;;;15.49;69.32;100886.91;4866388;28;96928;-85
2021/09/03 01:50:08;;;;;;;9.70;8.80;;;;;;;15.48;69.13;100864.03;4865780;28;101386;-84
2021/09/03 01:52:34;;;;;;;9.82;8.73;;;;;;;15.55;69.55;100895.41;4849745;28;101108;-83
2021/09/03 01:54:59;;;;;;;10.35;9.27;;;;;;;15.52;69.33;100894.69;4865157;28;96606;-85
2021/09/03 01:57:25;;;;;;;10.88;8.95;;;;;;;15.49;69.55;100905.41;4865770;28;97008;-85
2021/09/03 01:59:50;;;;;;;12.27;8.68;;;;;;;15.50;69.53;100896.56;4898566;28;98059;-85
2021/09/03 02:02:16;;;;;;;12.82;9.25;;;;;;;15.42;69.84;100902.22;4865397;28;101581;-85
2021/09/03 02:04:42;;;;;;;11.90;9.68;;;;;;;15.37;69.84;100889.16;4865870;28;96837;-85
2021/09/03 02:07:08;;;;;;;14.88;11.05;;;;;;;15.39;69.86;100891.75;4850014;28;96839;-84
2021/09/03 02:09:33;;;;;;;10.77;9.68;;;;;;;15.30;70.28;100882.44;4880649;28;101464;-84
2021/09/03 02:11:59;;;;;;;10.25;9.13;;;;;;;15.35;70.03;100879.59;4865878;28;100387;-85
2021/09/03 02:14:24;;;;;;;10.45;9.05;;;;;;;15.36;70.20;100883.97;4849968;28;96597;-85
2021/09/03 02:16:50;;;;;;;10.45;9.13;;;;;;;15.40;70.08;100890.81;4865636;28;96675;-85
2021/09/03 02:19:16;;;;;;;9.98;8.98;;;;;;;15.26;70.34;100883.50;4864759;28;101614;-84
2021/09/03 02:21:41;;;;;;;10.80;9.45;;;;;;;15.22;70.57;100875.78;4864806;28;101239;-83
2021/09/03 02:24:07;;;;;;;12.93;9.55;;;;;;;15.16;70.32;100868.97;4865293;28;96643;-85
2021/09/03 02:26:32;;;;;;;13.95;9.15;;;;;;;15.17;70.33;100871.53;4864748;28;96884;-85
2021/09/03 02:28:58;;;;;;;13.65;9.70;;;;;;;15.21;70.32;100876.69;4881010;28;97461;-85
2021/09/03 02:31:23;;;;;;;12.20;9.30;;;;;;;15.25;69.84;100873.00;4880742;28;98430;-85
2021/09/03 02:33:49;;;;;;;11.05;9.07;;;;;;;15.20;69.76;100870.56;4864982;28;96698;-85
2021/09/03 02:36:15;;;;;;;14.65;10.38;;;;;;;15.12;70.04;100862.09;4849776;28;96993;-84
2021/09/03 02:38:40;;;;;;;10.65;9.27;;;;;;;15.15;70.14;100869.88;4881082;28;97779;-85
2021/09/03 02:41:06;;;;;;;12.02;9.45;;;;;;;15.04;70.06;100859.81;4865010;28;101440;-85
2021/09/03 02:43:31;;;;;;;10.93;9.93;;;;;;;15.02;70.68;100859.00;4864625;28;96719;-85
2021/09/03 02:45:57;;;;;;;18.55;9.48;;;;;;;15.03;70.31;100857.22;4865181;28;96987;-86
2021/09/03 02:48:22;;;;;;;12.25;9.20;;;;;;;15.01;70.55;100853.78;4864754;28;101039;-85
2021/09/03 02:50:48;;;;;;;10.68;9.52;;;;;;;15.09;70.24;100857.78;4880611;28;101292;-85
2021/09/03 02:53:13;;;;;;;10.32;9.30;;;;;;;15.14;69.94;100865.53;4880979;28;96583;-85
2021/09/03 02:55:39;;;;;;;10.68;9.63;;;;;;;14.99;70.38;100851.22;4865049;28;96662;-85
2021/09/03 02:58:04;;;;;;;12.00;9.73;;;;;;;15.00;70.21;100867.94;4864681;28;101486;-85
2021/09/03 03:00:30;;;;;;;11.85;9.48;;;;;;;15.00;70.29;100860.84;4865051;28;101440;-85
2021/09/03 03:02:58;;;;;;;14.50;9.63;;;;;;;14.98;69.92;100852.16;4864914;28;96597;-85
2021/09/03 03:05:23;;;;;;;12.27;9.73;;;;;;;15.01;70.20;100856.41;4864886;28;96961;-85
2021/09/03 03:07:49;;;;;;;13.63;9.75;;;;;;;14.88;70.33;100851.69;4864177;28;100911;-85
2021/09/03 03:10:15;;;;;;;12.45;9.32;;;;;;;14.89;70.57;100858.69;4864530;28;101146;-85
2021/09/03 03:12:40;;;;;;;12.50;8.95;;;;;;;14.94;70.20;100853.19;4849179;28;96625;-85
2021/09/03 03:15:07;;;;;;;10.93;9.82;;;;;;;14.93;69.83;100841.75;4864782;28;96717;-84
2021/09/03 03:17:33;;;;;;;12.80;9.80;;;;;;;14.86;70.32;100842.09;4880340;28;97748;-86
2021/09/03 03:19:59;;;;;;;14.27;10.68;;;;;;;14.81;70.64;100836.16;4879263;28;101753;-86
2021/09/03 03:22:25;;;;;;;11.82;9.55;;;;;;;14.90;70.51;100841.06;4864549;28;96686;-85
2021/09/03 03:24:50;;;;;;;14.10;9.43;;;;;;;14.83;70.61;100839.59;4880634;28;96964;-85
2021/09/03 03:27:16;;;;;;;12.18;10.50;;;;;;;14.89;70.34;100831.38;4880555;28;98175;-85
2021/09/03 03:29:41;;;;;;;12.68;10.05;;;;;;;14.80;70.57;100845.00;4864178;28;100913;-85
2021/09/03 03:32:07;;;;;;;19.48;11.70;;;;;;;14.77;70.48;100831.91;4879974;28;96629;-85
2021/09/03 03:34:32;;;;;;;12.35;9.70;;;;;;;14.76;70.57;100835.50;4880147;28;96970;-85
2021/09/03 03:36:59;;;;;;;10.60;9.02;;;;;;;14.73;71.15;100836.50;4864088;28;101645;-85
2021/09/03 03:39:24;;;;;;;13.60;10.88;;;;;;;14.64;71.02;100821.03;4863822;28;99909;-85
2021/09/03 03:41:50;;;;;;;12.93;9.82;;;;;;;14.65;71.06;100828.88;4864629;28;96628;-84
2021/09/03 03:44:16;;;;;;;13.43;11.05;;;;;;;14.65;71.04;100818.31;4897886;28;96771;-85
2021/09/03 03:46:41;;;;;;;15.10;11.15;;;;;;;14.66;71.05;100832.38;4879839;28;101242;-85
2021/09/03 03:49:07;;;;;;;12.50;11.20;;;;;;;14.67;70.73;100831.47;4848817;28;101530;-84
2021/09/03 03:51:32;;;;;;;15.25;10.88;;;;;;;14.62;71.34;100829.00;4880150;28;96604;-85
2021/09/03 03:53:58;;;;;;;12.48;10.98;;;;;;;14.61;71.39;100823.81;4880014;28;97007;-85
2021/09/03 03:56:23;;;;;;;13.07;10.30;;;;;;;14.60;71.13;100817.69;4879030;28;101551;-85
2021/09/03 03:58:49;;;;;;;11.95;10.23;;;;;;;14.61;71.39;100823.81;4879654;28;101807;-85
2021/09/03 04:01:14;;;;;;;14.77;11.27;;;;;;;14.52;71.10;100805.72;4848570;28;96629;-85
2021/09/03 04:03:40;;;;;;;16.38;11.07;;;;;;;14.62;71.69;100813.16;4880130;28;96654;-85
2021/09/03 04:06:05;;;;;;;21.45;11.73;;;;;;;14.59;71.35;100810.66;4879848;28;98165;-84
2021/09/03 04:08:31;;;;;;;15.15;11.32;;;;;;;14.57;71.72;100811.63;4863762;28;99741;-85
2021/09/03 04:10:57;;;;;;;14.35;10.90;;;;;;;14.57;71.82;100809.00;4880037;28;96578;-85
2021/09/03 04:13:23;;;;;;;13.07;11.77;;;;;;;14.57;71.28;100799.28;4864200;28;96913;-84
2021/09/03 04:15:48;;;;;;;16.92;11.43;;;;;;;14.54;71.80;100804.69;4848101;28;101224;-85
2021/09/03 04:18:14;;;;;;;13.90;11.13;;;;;;;14.56;71.73;100802.00;4863799;28;101694;-85
2021/09/03 04:20:39;;;;;;;19.00;11.98;;;;;;;14.47;71.50;100784.72;4879028;28;96580;-85
2021/09/03 04:23:05;;;;;;;15.57;11.45;;;;;;;14.49;71.84;100793.47;4848248;28;96840;-85
2021/09/03 04:25:30;;;;;;;12.63;11.05;;;;;;;14.42;72.10;100782.28;4863483;28;97675;-85
2021/09/03 04:27:56;;;;;;;16.20;11.32;;;;;;;14.58;71.71;100800.16;4863571;28;99890;-85
2021/09/03 04:30:22;;;;;;;14.88;10.63;;;;;;;14.44;71.87;100788.38;4897251;28;96462;-85
2021/09/03 04:32:47;;;;;;;14.80;11.27;;;;;;;14.44;71.83;100793.66;4866535;28;96751;-85
2021/09/03 04:35:13;;;;;;;19.90;12.32;;;;;;;14.44;71.91;100795.44;4882993;28;97948;-86
2021/09/03 04:37:46;;;;;;;16.42;10.38;;;;;;;14.44;71.78;100784.88;4883472;28;98223;-86
2021/09/03 04:40:12;;;;;;;15.07;11.02;;;;;;;14.50;71.80;100793.38;4883544;28;96614;-86
2021/09/03 04:42:38;;;;;;;15.18;11.05;;;;;;;14.47;71.37;100784.72;4867020;28;96614;-86
2021/09/03 04:45:05;;;;;;;14.35;9.75;;;;;;;14.57;71.54;100801.94;4882089;28;97988;-85
2021/09/03 04:47:31;;;;;;;16.30;10.73;;;;;;;14.60;71.53;100796.53;4866898;28;98043;-85
2021/09/03 04:49:56;;;;;;;14.48;10.40;;;;;;;14.65;71.34;100794.53;4867335;28;96875;-86
2021/09/03 04:52:22;;;;;;;10.55;9.45;;;;;;;14.73;70.78;100782.78;4882854;28;96789;-85
2021/09/03 04:54:47;;;;;;;11.70;10.13;;;;;;;14.92;70.82;100788.94;4866499;28;101583;-86
2021/09/03 04:57:13;;;;;;;16.85;11.02;;;;;;;15.24;70.32;100791.94;4882392;28;98008;-85
2021/09/03 04:59:39;;;;;;;13.68;10.52;;;;;;;15.55;69.33;100796.66;4882200;28;96678;-85
2021/09/03 05:02:04;;;;;;;14.85;10.65;;;;;;;15.81;68.72;100785.72;4851216;28;97036;-85
2021/09/03 05:04:30;;;;;;;17.90;10.25;;;;;;;16.15;68.18;100797.31;4866469;28;98305;-87
2021/09/03 05:06:55;;;;;;;16.25;10.55;;;;;;;16.33;67.69;100792.03;4866356;28;100803;-85
2021/09/03 05:09:21;;;;;;;15.63;10.75;;;;;;;16.41;67.57;100793.34;4881695;28;96617;-84
2021/09/03 05:11:46;;;;;;;14.77;11.40;;;;;;;16.42;67.67;100788.91;4867737;28;96917;-89
2021/09/03 05:14:11;;;;;;;16.23;11.45;;;;;;;16.60;67.01;100785.31;4851606;28;101509;-93
2021/09/03 05:16:37;;;;;;;17.17;11.10;;;;;;;16.72;67.27;100791.75;4882679;28;101583;-84
2021/09/03 05:19:02;;;;;;;19.63;11.15;;;;;;;16.90;67.03;100790.84;4850782;28;96615;-85
2021/09/03 05:21:28;;;;;;;16.08;12.00;;;;;;;16.93;66.82;100789.84;4899819;28;96819;-85
2021/09/03 05:23:53;;;;;;;18.02;10.93;;;;;;;17.00;66.83;100785.91;4866062;28;101406;-85
2021/09/03 05:26:19;;;;;;;23.98;12.52;;;;;;;17.14;66.85;100788.66;4850065;28;102122;-84
2021/09/03 05:28:45;;;;;;;17.55;11.15;;;;;;;17.19;67.03;100793.72;4867567;28;96565;-90
2021/09/03 05:31:10;;;;;;;19.45;11.57;;;;;;;17.28;66.68;100785.28;4882950;28;96927;-88
2021/09/03 05:33:36;;;;;;;15.88;11.40;;;;;;;17.39;66.63;100795.28;4865340;28;98358;-83
2021/09/03 05:36:01;;;;;;;17.88;12.05;;;;;;;17.53;66.30;100789.22;4882125;28;98697;-91
2021/09/03 05:38:27;;;;;;;15.98;11.35;;;;;;;17.58;65.78;100790.69;4867151;28;96664;-92
2021/09/03 05:40:52;;;;;;;17.30;10.82;;;;;;;17.83;65.47;100787.53;4883459;28;96933;-91
2021/09/03 05:43:21;;;;;;;15.25;11.52;;;;;;;17.93;65.07;100781.72;4881742;28;97703;-84
2021/09/03 05:45:46;;;;;;;14.40;11.23;;;;;;;18.11;65.03;100791.25;4850984;28;101728;-91
2021/09/03 05:48:12;;;;;;;19.25;11.40;;;;;;;18.21;64.82;100780.94;4882354;28;96661;-86
2021/09/03 05:50:37;;;;;;;17.05;11.40;;;;;;;18.36;64.54;100777.41;4882710;28;96827;-86
2021/09/03 05:53:03;;;;;;;20.50;12.02;;;;;;;18.64;64.09;100778.41;4850526;28;100118;-87
2021/09/03 05:55:29;;;;;;;13.10;11.63;;;;;;;18.82;63.30;100773.78;4881726;28;101753;-87
2021/09/03 05:57:54;;;;;;;17.70;10.90;;;;;;;18.90;63.14;100779.50;4866227;28;96652;-88
2021/09/03 06:00:20;;;;;;;16.10;11.90;;;;;;;19.17;62.49;100769.81;4882444;28;96875;-83
2021/09/03 06:02:46;;;;;;;14.90;11.75;;;;;;;19.40;62.25;100765.69;4865612;28;101725;-87
2021/09/03 06:05:11;;;;;;;14.88;11.23;;;;;;;19.89;61.22;100769.66;4850012;28;100312;-87
2021/09/03 06:07:37;;;;;;;12.82;10.95;;;;;;;20.11;60.56;100753.97;4882316;28;96664;-85
2021/09/03 06:10:05;;;;;;;23.02;12.23;;;;;;;20.47;59.20;100762.25;4866781;28;96942;-88
2021/09/03 06:12:30;;;;;;;16.70;11.65;;;;;;;21.01;58.62;100754.91;4881678;28;99328;-86
2021/09/03 06:14:56;;;;;;;15.57;12.02;;;;;;;21.90;56.09;100759.16;4881841;28;97426;-85
2021/09/03 06:17:21;;;;;;;15.38;11.52;;;;;;;23.36;52.95;100763.09;4865716;28;96577;-85
2021/09/03 06:19:47;;;;;;;12.18;10.93;;;;;;;24.58;50.04;100750.25;4881696;28;96811;-85
2021/09/03 06:22:13;;;;;;;14.25;11.23;;;;;;;25.83;47.21;100750.88;4864898;28;101419;-86
2021/09/03 06:24:38;;;;;;;18.17;9.95;;;;;;;27.07;45.29;100749.09;4881006;28;101167;-88
2021/09/03 06:27:09;;;;;;;11.85;9.65;;;;;;;27.85;43.34;100754.09;4881494;28;96574;-86
2021/09/03 06:29:41;;;;;;;11.35;10.25;;;;;;;28.50;41.79;100748.41;4880975;28;96707;-85
2021/09/03 06:32:12;;;;;;;10.90;9.80;;;;;;;29.31;39.69;100742.59;4881761;28;102080;-84
2021/09/03 06:34:42;;;;;;;;;;;;;;;29.71;38.82;100738.34;4881381;28;97718;-85
2021/09/03 06:37:08;;;;;;;10.45;9.20;;;;;;;30.54;38.08;100732.75;4880823;28;96670;-85
2021/09/03 06:39:34;;;;;;;11.40;9.55;;;;;;;31.25;37.06;100724.78;4865627;28;96883;-84
2021/09/03 06:42:00;;;;;;;12.32;10.65;;;;;;;31.37;36.41;100720.66;4897857;28;97723;-85
2021/09/03 06:44:25;;;;;;;13.68;9.70;;;;;;;32.05;35.57;100721.72;4864621;28;102003;-85
2021/09/03 06:46:51;;;;;;;12.10;9.00;;;;;;;32.72;34.34;100709.22;4880101;28;96608;-85
2021/09/03 06:49:16;;;;;;;10.35;9.07;;;;;;;33.11;33.71;100712.50;4864992;28;96839;-86
2021/09/03 06:51:42;;;;;;;10.30;9.20;;;;;;;33.72;33.07;100714.88;4864914;28;98214;-86
2021/09/03 06:54:08;;;;;;;14.15;9.68;;;;;;;33.98;32.80;100703.41;4865130;28;97378;-88
2021/09/03 06:56:33;;;;;;;10.98;8.85;;;;;;;34.46;32.39;100714.47;4864744;28;96617;-86
2021/09/03 06:59:00;;;;;;;9.00;8.10;;;;;;;34.61;32.15;100710.81;4865271;28;97014;-84
2021/09/03 07:01:26;;;;;;;10.82;8.20;;;;;;;34.74;31.16;100713.63;4865020;28;101238;-89
2021/09/03 07:03:51;;;;;;;9.32;8.50;;;;;;;35.27;30.43;100716.63;4865293;28;98468;-87
2021/09/03 07:06:17;;;;;;;9.75;8.85;;;;;;;35.09;30.76;100709.00;4849551;28;96678;-86
2021/09/03 07:08:42;;;;;;;14.02;10.30;;;;;;;35.65;30.09;100705.19;4881633;28;97095;-87
2021/09/03 07:11:08;;;;;;;9.70;8.80;;;;;;;36.51;29.27;100704.38;4865483;28;98515;-87
2021/09/03 07:13:35;;;;;;;9.57;8.50;;;;;;;36.75;28.25;100696.56;4864740;28;101073;-85
2021/09/03 07:16:01;;;;;;;10.27;8.05;;;;;;;37.03;28.16;100688.03;4881919;28;96758;-84
2021/09/03 07:18:27;;;;;;;10.45;8.30;;;;;;;37.48;27.46;100691.63;4881856;28;96921;-89
2021/09/03 07:20:52;;;;;;;10.30;9.35;;;;;;;36.72;28.94;100690.47;4865419;28;101649;-88
2021/09/03 07:23:18;;;;;;;9.93;8.82;;;;;;;37.19;28.29;100689.47;4849229;28;101600;-87
2021/09/03 07:25:44;;;;;;;10.40;9.35;;;;;;;36.99;28.54;100698.56;4863956;28;96856;-82
2021/09/03 07:28:09;;;;;;;11.82;8.45;;;;;;;37.81;27.75;100691.38;4880624;28;96834;-84
2021/09/03 07:30:35;;;;;;;9.50;8.60;;;;;;;38.30;27.15;100690.78;4864015;28;98425;-81
2021/09/03 07:33:00;;;;;;;10.57;9.13;;;;;;;38.48;27.18;100688.09;4879942;28;101240;-81
2021/09/03 07:35:26;;;;;;;9.45;8.55;;;;;;;38.66;26.29;100690.00;4879883;28;96607;-85
2021/09/03 07:37:51;;;;;;;10.48;8.90;;;;;;;38.91;26.28;100701.75;4897302;28;96808;-82
2021/09/03 07:40:17;;;;;;;9.07;8.27;;;;;;;38.77;26.82;100691.16;4864180;28;98200;-82
2021/09/03 07:42:43;;;;;;;10.15;8.07;;;;;;;39.33;25.76;100674.44;4879903;28;97302;-81
2021/09/03 07:45:09;;;;;;;12.02;8.35;;;;;;;39.65;25.69;100665.06;4879754;28;96602;-80
2021/09/03 07:47:34;;;;;;;8.95;8.05;;;;;;;39.93;25.17;100670.75;4863987;28;96983;-81
2021/09/03 07:50:00;;;;;;;8.05;7.25;;;;;;;39.88;25.75;100670.59;4879904;28;98630;-80
2021/09/03 07:52:25;;;;;;;10.82;8.90;;;;;;;39.96;25.31;100667.50;4864185;28;100929;-80
2021/09/03 07:54:51;;;;;;;9.40;8.50;;;;;;;39.58;25.82;100660.50;4864174;28;96629;-79
2021/09/03 07:57:16;;;;;;;10.05;8.10;;;;;;;39.44;25.81;100669.19;4863819;28;96941;-81
2021/09/03 07:59:42;;;;;;;8.68;7.88;;;;;;;39.11;25.83;100662.25;4879120;28;97754;-80
2021/09/03 08:02:07;;;;;;;9.50;8.50;;;;;;;39.30;26.03;100668.53;4864264;28;97906;-80
2021/09/03 08:04:33;;;;;;;11.40;8.73;;;;;;;37.97;27.35;100665.38;4863981;28;96675;-82
2021/09/03 08:06:59;;;;;;;8.77;7.53;;;;;;;37.82;27.59;100676.63;4879262;28;96819;-80
2021/09/03 08:09:24;;;;;;;9.98;7.40;;;;;;;36.99;28.57;100664.91;4894719;28;101286;-84
2021/09/03 08:11:51;;;;;;;8.38;7.50;;;;;;;36.16;29.59;100655.47;4863193;28;100932;-81
2021/09/03 08:14:16;;;;;;;12.48;8.80;;;;;;;36.26;29.39;100663.22;4879630;28;96642;-80
2021/09/03 08:16:42;;;;;;;8.20;7.50;;;;;;;35.87;29.82;100659.44;4895560;28;96947;-83
2021/09/03 08:19:08;;;;;;;8.05;7.40;;;;;;;36.11;29.75;100654.41;4879573;28;97548;-80
2021/09/03 08:21:34;;;;;;;8.05;7.38;;;;;;;36.17;29.28;100657.13;4879314;28;101603;-79
2021/09/03 08:24:00;;;;;;;11.90;7.88;;;;;;;35.85;29.56;100642.41;4862999;28;96742;-81
2021/09/03 08:26:25;;;;;;;8.45;7.65;;;;;;;36.15;29.64;100645.56;4879430;28;96859;-79
2021/09/03 08:28:51;;;;;;;8.68;7.78;;;;;;;35.60;29.95;100655.84;4863407;28;101729;-79
2021/09/03 08:31:17;;;;;;;10.55;8.43;;;;;;;36.09;28.96;100645.56;4863719;28;97567;-79
2021/09/03 08:33:42;;;;;;;9.43;8.57;;;;;;;35.79;29.41;100644.09;4879836;28;96563;-84
2021/09/03 08:36:08;;;;;;;9.57;8.60;;;;;;;36.49;28.92;100654.53;4848038;28;97015;-80
2021/09/03 08:38:33;;;;;;;8.80;8.10;;;;;;;36.80;28.67;100642.91;4847590;28;101967;-84
2021/09/03 08:40:59;;;;;;;10.20;8.77;;;;;;;36.44;28.86;100641.50;4879946;28;98442;-79
2021/09/03 08:43:26;;;;;;;8.82;8.00;;;;;;;36.14;29.48;100643.06;4879052;28;96574;-81
2021/09/03 08:45:52;;;;;;;8.65;7.82;;;;;;;36.08;29.62;100641.19;4879462;28;96804;-79
2021/09/03 08:48:19;;;;;;;9.48;8.55;;;;;;;36.11;29.31;100638.03;4878261;28;101802;-79
2021/09/03 08:50:46;;;;;;;8.45;7.50;;;;;;;34.52;31.16;100647.41;4863271;28;97370;-79
2021/09/03 08:53:16;;;;;;;8.73;8.02;;;;;;;35.39;29.44;100640.47;4863552;28;96702;-80
2021/09/03 08:55:44;;;;;;;8.65;7.75;;;;;;;35.90;29.03;100642.63;4863396;28;96949;-79
2021/09/03 08:58:09;;;;;;;7.85;7.30;;;;;;;35.41;30.09;100641.09;4862359;28;100245;-88
2021/09/03 09:00:35;;;;;;;8.38;7.68;;;;;;;35.87;28.89;100643.06;4862974;28;101578;-83
2021/09/03 09:03:13;;;;;;;8.20;7.35;;;;;;;35.79;28.92;100652.28;4879466;28;96699;-82
2021/09/03 09:05:48;;;;;;;8.57;7.80;;;;;;;36.11;28.30;100644.31;4864522;28;96515;-84
2021/09/03 09:08:15;;;;;;;7.93;7.25;;;;;;;36.37;27.98;100631.66;4879200;28;98105;-84
2021/09/03 09:10:54;;;;;;;8.63;7.88;;;;;;;36.84;27.16;100635.94;4863310;28;98061;-85
2021/09/03 09:13:22;;;;;;;9.90;9.00;;;;;;;35.91;28.66;100618.88;4862842;28;96614;-85
2021/09/03 09:16:00;;;;;;;9.73;8.85;;;;;;;34.39;30.08;100633.75;4848074;28;96928;-85
2021/09/03 09:18:48;;;;;;;8.98;8.15;;;;;;;33.11;31.96;100628.19;4895489;28;99833;-84
2021/09/03 09:21:13;;;;;;;10.20;9.05;;;;;;;31.99;33.88;100624.72;4882643;28;98293;-85
2021/09/03 09:23:51;;;;;;;10.32;9.18;;;;;;;31.48;34.78;100625.31;4882359;28;96649;-85
2021/09/03 09:26:18;;;;;;;11.18;10.18;;;;;;;33.29;31.82;100622.31;4866411;28;96622;-87
2021/09/03 09:28:45;;;;;;;10.07;9.05;;;;;;;33.41;31.37;100624.53;4881947;28;98175;-87
2021/09/03 09:31:11;;;;;;;10.15;9.30;;;;;;;34.63;30.07;100616.91;4882248;28;101628;-86
2021/09/03 09:33:37;;;;;;;9.68;8.85;;;;;;;35.29;29.03;100605.41;4850838;28;96584;-85
2021/09/03 09:36:03;;;;;;;10.30;8.57;;;;;;;35.48;28.70;100609.19;4850642;28;96862;-86
2021/09/03 09:38:34;;;;;;;9.32;8.38;;;;;;;34.99;29.09;100604.03;4898628;28;98265;-85
2021/09/03 09:41:06;;;;;;;10.15;9.35;;;;;;;32.93;32.23;100616.88;4881735;28;100803;-83
2021/09/03 09:43:33;;;;;;;10.95;10.02;;;;;;;34.57;30.45;100606.81;4866070;28;96660;-85
2021/09/03 09:46:15;;;;;;;11.38;10.35;;;;;;;36.48;27.74;100601.78;4882105;28;96828;-85
2021/09/03 09:48:50;;;;;;;11.43;10.35;;;;;;;37.29;27.28;100602.22;4881247;28;100583;-85
2021/09/03 09:51:23;;;;;;;13.00;11.43;;;;;;;37.20;27.15;100587.16;4897232;28;101437;-85
2021/09/03 09:53:58;;;;;;;11.55;10.55;;;;;;;35.49;29.17;100607.28;4881728;28;96638;-85
2021/09/03 09:56:25;;;;;;;11.77;10.63;;;;;;;34.34;30.89;100593.47;4882278;28;96737;-83
2021/09/03 09:58:53;;;;;;;12.13;10.43;;;;;;;33.97;31.37;100597.38;4898671;28;97801;-85
2021/09/03 10:01:20;;;;;;;11.88;9.98;;;;;;;35.30;30.10;100592.59;4865449;28;101244;-85
2021/09/03 10:03:51;;;;;;;10.68;8.88;;;;;;;34.97;30.24;100587.03;4880905;28;96661;-85
2021/09/03 10:06:22;;;;;;;9.32;8.52;;;;;;;34.45;30.47;100589.34;4865971;28;96947;-85
2021/09/03 10:08:49;;;;;;;14.52;8.35;;;;;;;34.42;30.95;100576.97;4865300;28;101545;-85
2021/09/03 10:11:17;;;;;;;9.85;8.95;;;;;;;34.40;30.62;100573.59;4865705;28;98428;-85
2021/09/03 10:13:43;;;;;;;8.32;7.45;;;;;;;33.88;30.85;100563.19;4865566;28;96652;-85
2021/09/03 10:16:09;;;;;;;8.63;7.80;;;;;;;34.09;31.06;100562.31;4865761;28;96571;-84
2021/09/03 10:18:35;;;;;;;8.82;8.02;;;;;;;33.56;32.18;100571.75;4865466;28;97731;-85
2021/09/03 10:21:01;;;;;;;10.13;7.68;;;;;;;33.39;32.45;100564.88;4881673;28;97560;-85
2021/09/03 10:23:49;;;;;;;8.55;7.32;;;;;;;32.53;33.44;100562.03;4849731;28;98403;-85
2021/09/03 10:26:17;;;;;;;9.27;7.22;;;;;;;32.31;33.17;100560.25;4881082;28;96891;-85
2021/09/03 10:28:42;;;;;;;7.68;6.95;;;;;;;32.33;32.91;100564.47;4864244;28;101208;-84
2021/09/03 10:31:08;;;;;;;7.85;7.13;;;;;;;31.19;34.01;100569.06;4865372;28;98414;-84
2021/09/03 10:33:35;;;;;;;7.72;7.03;;;;;;;31.33;34.32;100556.59;4865448;28;96527;-85
2021/09/03 10:36:00;;;;;;;8.43;7.38;;;;;;;30.42;35.60;100566.25;4881558;28;96553;-85
2021/09/03 10:38:30;;;;;;;8.93;7.57;;;;;;;30.43;35.35;100562.53;4898140;28;98804;-80
2021/09/03 10:40:57;;;;;;;8.85;6.93;;;;;;;29.90;35.96;100564.84;4881178;28;97567;-80
2021/09/03 10:43:43;;;;;;;8.48;7.63;;;;;;;29.94;36.52;100554.53;4880665;28;96655;-80
2021/09/03 10:46:14;;;;;;;8.18;7.47;;;;;;;29.95;36.20;100548.94;4881135;28;96945;-80
2021/09/03 10:48:48;;;;;;;8.35;7.55;;;;;;;29.36;37.00;100552.88;4897667;28;98150;-80
2021/09/03 10:51:32;;;;;;;14.52;7.90;;;;;;;28.96;37.29;100544.53;4880579;28;101290;-81
2021/09/03 10:53:58;;;;;;;10.23;7.78;;;;;;;29.11;36.94;100542.03;4864596;28;96679;-81
2021/09/03 10:56:26;;;;;;;12.65;8.20;;;;;;;28.57;37.90;100536.16;4864871;28;96817;-80
2021/09/03 10:58:53;;;;;;;8.27;7.47;;;;;;;28.37;38.25;100540.94;4864714;28;101105;-80
2021/09/03 11:01:27;;;;;;;16.27;10.25;;;;;;;28.07;39.24;100537.78;4880079;28;101532;-80
2021/09/03 11:04:01;;;;;;;11.93;9.50;;;;;;;27.96;39.51;100540.75;4865192;28;96805;-80
2021/09/03 11:06:29;;;;;;;14.95;11.02;;;;;;;27.44;40.34;100538.00;4864825;28;96776;-81
2021/09/03 11:08:59;;;;;;;141.23;38.63;;;;;;;27.24;40.34;100529.22;4880187;28;97674;-81
2021/09/03 11:11:35;;;;;;;76.87;39.83;;;;;;;27.00;40.71;100519.06;4864645;28;100993;-80